Terminal Aerodrome Forecast
Issued by NWS Portland, OR

Home | Current Version | Previous Version | Text Only | Print | Product List | Glossary On
Versions: 1 2 3 4 5 6 7 8 9 10 11 12 13 14 15 16 17 18 19 20 21 22 23 24 25 26
000
FTUS46 KPQR 251459 AAA
TAFPDX
TAF AMD
KPDX 251459Z 2515/2612 VRB03KT P6SM VCSH SCT070 BKN100
     FM252100 VRB04KT P6SM VCSH OVC060
     FM260400 VRB03KT P6SM VCSH OVC035=

USA.gov is the U.S. government's official web portal to all federal, state and local government web resources and services.